sensor_id;sensor_type;location;lat;lon;timestamp;P1;durP1;ratioP1;P2;durP2;ratioP2
49828;SDS011;35723;51.194;5.112;2023-06-01T00:00:37;21.08;;;6.57;;
49828;SDS011;35723;51.194;5.112;2023-06-01T00:03:05;19.65;;;6.50;;
49828;SDS011;35723;51.194;5.112;2023-06-01T00:05:31;17.40;;;6.38;;
49828;SDS011;35723;51.194;5.112;2023-06-01T00:07:57;17.25;;;6.85;;
49828;SDS011;35723;51.194;5.112;2023-06-01T00:10:22;18.80;;;6.65;;
49828;SDS011;35723;51.194;5.112;2023-06-01T00:12:48;17.10;;;6.50;;
49828;SDS011;35723;51.194;5.112;2023-06-01T00:15:14;15.63;;;6.65;;
49828;SDS011;35723;51.194;5.112;2023-06-01T00:17:40;16.80;;;7.30;;
49828;SDS011;35723;51.194;5.112;2023-06-01T00:20:05;17.23;;;6.90;;
49828;SDS011;35723;51.194;5.112;2023-06-01T00:22:34;19.40;;;6.90;;
49828;SDS011;35723;51.194;5.112;2023-06-01T00:25:03;18.40;;;7.20;;
49828;SDS011;35723;51.194;5.112;2023-06-01T00:27:31;16.40;;;7.05;;
49828;SDS011;35723;51.194;5.112;2023-06-01T00:29:56;16.60;;;6.90;;
49828;SDS011;35723;51.194;5.112;2023-06-01T00:32:22;18.98;;;6.88;;
49828;SDS011;35723;51.194;5.112;2023-06-01T00:34:48;19.23;;;6.93;;
49828;SDS011;35723;51.194;5.112;2023-06-01T00:37:13;16.77;;;6.53;;
49828;SDS011;35723;51.194;5.112;2023-06-01T00:39:39;17.20;;;7.05;;
49828;SDS011;35723;51.194;5.112;2023-06-01T00:42:05;16.77;;;7.45;;
49828;SDS011;35723;51.194;5.112;2023-06-01T00:44:31;15.73;;;7.22;;
49828;SDS011;35723;51.194;5.112;2023-06-01T00:46:56;19.13;;;7.65;;
49828;SDS011;35723;51.194;5.112;2023-06-01T00:49:24;19.02;;;7.47;;
49828;SDS011;35723;51.194;5.112;2023-06-01T00:51:50;20.05;;;7.43;;
49828;SDS011;35723;51.194;5.112;2023-06-01T00:54:16;20.13;;;8.00;;
49828;SDS011;35723;51.194;5.112;2023-06-01T00:56:42;19.73;;;8.02;;
49828;SDS011;35723;51.194;5.112;2023-06-01T00:59:08;19.25;;;7.97;;
49828;SDS011;35723;51.194;5.112;2023-06-01T01:01:35;18.63;;;7.60;;
49828;SDS011;35723;51.194;5.112;2023-06-01T01:04:01;19.33;;;7.65;;
49828;SDS011;35723;51.194;5.112;2023-06-01T01:09:17;20.27;;;7.45;;
49828;SDS011;35723;51.194;5.112;2023-06-01T01:12:09;18.80;;;7.68;;
49828;SDS011;35723;51.194;5.112;2023-06-01T01:14:59;20.17;;;8.60;;
49828;SDS011;35723;51.194;5.112;2023-06-01T01:17:36;18.73;;;7.53;;
49828;SDS011;35723;51.194;5.112;2023-06-01T01:20:24;17.48;;;8.13;;
49828;SDS011;35723;51.194;5.112;2023-06-01T01:23:07;21.52;;;8.30;;
49828;SDS011;35723;51.194;5.112;2023-06-01T01:28:41;23.50;;;9.05;;
49828;SDS011;35723;51.194;5.112;2023-06-01T01:31:11;20.48;;;8.32;;
49828;SDS011;35723;51.194;5.112;2023-06-01T01:33:38;17.15;;;8.23;;
49828;SDS011;35723;51.194;5.112;2023-06-01T01:36:06;24.48;;;9.23;;
49828;SDS011;35723;51.194;5.112;2023-06-01T01:38:34;21.55;;;9.32;;
49828;SDS011;35723;51.194;5.112;2023-06-01T01:41:00;17.83;;;8.93;;
49828;SDS011;35723;51.194;5.112;2023-06-01T01:43:27;22.10;;;9.60;;
49828;SDS011;35723;51.194;5.112;2023-06-01T01:46:10;24.77;;;9.63;;
49828;SDS011;35723;51.194;5.112;2023-06-01T01:51:51;23.25;;;9.60;;
49828;SDS011;35723;51.194;5.112;2023-06-01T01:54:32;24.77;;;10.13;;
49828;SDS011;35723;51.194;5.112;2023-06-01T01:57:02;22.17;;;10.15;;
49828;SDS011;35723;51.194;5.112;2023-06-01T01:59:29;20.70;;;9.63;;
49828;SDS011;35723;51.194;5.112;2023-06-01T02:01:56;24.13;;;10.55;;
49828;SDS011;35723;51.194;5.112;2023-06-01T02:04:22;24.63;;;10.10;;
49828;SDS011;35723;51.194;5.112;2023-06-01T02:06:48;22.92;;;10.27;;
49828;SDS011;35723;51.194;5.112;2023-06-01T02:09:13;24.85;;;10.57;;
49828;SDS011;35723;51.194;5.112;2023-06-01T02:11:39;21.77;;;10.60;;
49828;SDS011;35723;51.194;5.112;2023-06-01T02:14:05;26.85;;;11.68;;
49828;SDS011;35723;51.194;5.112;2023-06-01T02:16:31;23.23;;;11.60;;
49828;SDS011;35723;51.194;5.112;2023-06-01T02:18:56;25.48;;;11.30;;
49828;SDS011;35723;51.194;5.112;2023-06-01T02:21:25;25.42;;;11.60;;
49828;SDS011;35723;51.194;5.112;2023-06-01T02:23:51;23.45;;;11.18;;
49828;SDS011;35723;51.194;5.112;2023-06-01T02:26:17;23.65;;;11.63;;
49828;SDS011;35723;51.194;5.112;2023-06-01T02:28:43;26.40;;;12.23;;
49828;SDS011;35723;51.194;5.112;2023-06-01T02:31:09;24.65;;;11.10;;
49828;SDS011;35723;51.194;5.112;2023-06-01T02:33:35;24.70;;;12.05;;
49828;SDS011;35723;51.194;5.112;2023-06-01T02:36:03;25.65;;;11.57;;
49828;SDS011;35723;51.194;5.112;2023-06-01T02:38:28;24.98;;;12.80;;
49828;SDS011;35723;51.194;5.112;2023-06-01T02:40:54;25.17;;;12.20;;
49828;SDS011;35723;51.194;5.112;2023-06-01T02:43:20;26.70;;;12.35;;
49828;SDS011;35723;51.194;5.112;2023-06-01T02:45:45;24.45;;;12.07;;
49828;SDS011;35723;51.194;5.112;2023-06-01T02:48:11;26.08;;;12.55;;
49828;SDS011;35723;51.194;5.112;2023-06-01T02:50:37;26.63;;;12.30;;
49828;SDS011;35723;51.194;5.112;2023-06-01T02:53:03;25.67;;;12.82;;
49828;SDS011;35723;51.194;5.112;2023-06-01T02:55:30;25.80;;;13.48;;
49828;SDS011;35723;51.194;5.112;2023-06-01T02:57:55;28.15;;;12.85;;
49828;SDS011;35723;51.194;5.112;2023-06-01T03:00:21;28.38;;;13.05;;
49828;SDS011;35723;51.194;5.112;2023-06-01T03:02:47;28.65;;;13.60;;
49828;SDS011;35723;51.194;5.112;2023-06-01T03:05:13;29.13;;;12.93;;
49828;SDS011;35723;51.194;5.112;2023-06-01T03:07:40;30.88;;;13.40;;
49828;SDS011;35723;51.194;5.112;2023-06-01T03:10:07;26.45;;;13.80;;
49828;SDS011;35723;51.194;5.112;2023-06-01T03:12:33;25.90;;;13.63;;
49828;SDS011;35723;51.194;5.112;2023-06-01T03:14:58;26.20;;;13.95;;
49828;SDS011;35723;51.194;5.112;2023-06-01T03:17:24;28.75;;;14.45;;
49828;SDS011;35723;51.194;5.112;2023-06-01T03:19:50;30.08;;;13.45;;
49828;SDS011;35723;51.194;5.112;2023-06-01T03:22:16;30.05;;;14.27;;
49828;SDS011;35723;51.194;5.112;2023-06-01T03:24:42;30.40;;;14.68;;
49828;SDS011;35723;51.194;5.112;2023-06-01T03:27:09;29.23;;;13.93;;
49828;SDS011;35723;51.194;5.112;2023-06-01T03:29:36;29.33;;;14.82;;
49828;SDS011;35723;51.194;5.112;2023-06-01T03:32:02;29.27;;;15.10;;
49828;SDS011;35723;51.194;5.112;2023-06-01T03:34:28;28.90;;;15.40;;
49828;SDS011;35723;51.194;5.112;2023-06-01T03:36:54;28.25;;;15.23;;
49828;SDS011;35723;51.194;5.112;2023-06-01T03:39:21;32.65;;;15.43;;
49828;SDS011;35723;51.194;5.112;2023-06-01T03:41:46;35.22;;;14.75;;
49828;SDS011;35723;51.194;5.112;2023-06-01T03:44:12;32.20;;;15.57;;
49828;SDS011;35723;51.194;5.112;2023-06-01T03:46:38;31.00;;;14.88;;
49828;SDS011;35723;51.194;5.112;2023-06-01T03:49:04;30.63;;;15.65;;
49828;SDS011;35723;51.194;5.112;2023-06-01T03:51:31;30.90;;;15.52;;
49828;SDS011;35723;51.194;5.112;2023-06-01T03:53:57;29.98;;;16.17;;
49828;SDS011;35723;51.194;5.112;2023-06-01T03:56:22;28.88;;;15.93;;
49828;SDS011;35723;51.194;5.112;2023-06-01T03:58:49;33.55;;;16.77;;
49828;SDS011;35723;51.194;5.112;2023-06-01T04:01:15;29.30;;;16.00;;
49828;SDS011;35723;51.194;5.112;2023-06-01T04:03:46;31.88;;;15.48;;
49828;SDS011;35723;51.194;5.112;2023-06-01T04:06:13;33.97;;;17.52;;
49828;SDS011;35723;51.194;5.112;2023-06-01T04:08:42;32.58;;;17.20;;
49828;SDS011;35723;51.194;5.112;2023-06-01T04:11:16;33.97;;;17.27;;
49828;SDS011;35723;51.194;5.112;2023-06-01T04:13:43;30.13;;;16.85;;
49828;SDS011;35723;51.194;5.112;2023-06-01T04:16:12;32.42;;;16.67;;
49828;SDS011;35723;51.194;5.112;2023-06-01T04:18:37;28.85;;;15.85;;
49828;SDS011;35723;51.194;5.112;2023-06-01T04:21:03;29.77;;;16.02;;
49828;SDS011;35723;51.194;5.112;2023-06-01T04:23:30;29.92;;;15.85;;
49828;SDS011;35723;51.194;5.112;2023-06-01T04:25:56;29.02;;;15.63;;
49828;SDS011;35723;51.194;5.112;2023-06-01T04:28:24;28.08;;;14.77;;
49828;SDS011;35723;51.194;5.112;2023-06-01T04:30:51;32.72;;;15.70;;
49828;SDS011;35723;51.194;5.112;2023-06-01T04:33:18;27.85;;;15.68;;
49828;SDS011;35723;51.194;5.112;2023-06-01T04:35:43;30.52;;;15.88;;
49828;SDS011;35723;51.194;5.112;2023-06-01T04:38:09;29.98;;;15.27;;
49828;SDS011;35723;51.194;5.112;2023-06-01T04:40:35;31.20;;;16.17;;
49828;SDS011;35723;51.194;5.112;2023-06-01T04:43:01;29.05;;;14.93;;
49828;SDS011;35723;51.194;5.112;2023-06-01T04:45:28;30.25;;;15.90;;
49828;SDS011;35723;51.194;5.112;2023-06-01T04:47:58;31.48;;;14.43;;
49828;SDS011;35723;51.194;5.112;2023-06-01T04:50:24;27.92;;;14.85;;
49828;SDS011;35723;51.194;5.112;2023-06-01T04:52:54;25.35;;;13.63;;
49828;SDS011;35723;51.194;5.112;2023-06-01T04:55:20;27.42;;;13.73;;
49828;SDS011;35723;51.194;5.112;2023-06-01T04:57:46;29.58;;;14.15;;
49828;SDS011;35723;51.194;5.112;2023-06-01T05:00:12;26.90;;;14.10;;
49828;SDS011;35723;51.194;5.112;2023-06-01T05:02:43;24.90;;;12.88;;
49828;SDS011;35723;51.194;5.112;2023-06-01T05:05:09;29.10;;;12.98;;
49828;SDS011;35723;51.194;5.112;2023-06-01T05:07:36;25.95;;;12.63;;
49828;SDS011;35723;51.194;5.112;2023-06-01T05:10:04;25.85;;;12.70;;
49828;SDS011;35723;51.194;5.112;2023-06-01T05:12:31;24.88;;;12.60;;
49828;SDS011;35723;51.194;5.112;2023-06-01T05:14:58;26.48;;;12.73;;
49828;SDS011;35723;51.194;5.112;2023-06-01T05:17:24;26.88;;;12.68;;
49828;SDS011;35723;51.194;5.112;2023-06-01T05:19:50;25.73;;;12.65;;
49828;SDS011;35723;51.194;5.112;2023-06-01T05:22:16;28.38;;;13.23;;
49828;SDS011;35723;51.194;5.112;2023-06-01T05:24:41;26.40;;;12.60;;
49828;SDS011;35723;51.194;5.112;2023-06-01T05:27:07;23.45;;;12.15;;
49828;SDS011;35723;51.194;5.112;2023-06-01T05:29:33;28.90;;;13.30;;
49828;SDS011;35723;51.194;5.112;2023-06-01T05:31:58;26.70;;;12.60;;
49828;SDS011;35723;51.194;5.112;2023-06-01T05:34:24;25.30;;;12.35;;
49828;SDS011;35723;51.194;5.112;2023-06-01T05:36:50;27.00;;;11.25;;
49828;SDS011;35723;51.194;5.112;2023-06-01T05:39:16;25.55;;;12.25;;
49828;SDS011;35723;51.194;5.112;2023-06-01T05:41:41;25.10;;;11.75;;
49828;SDS011;35723;51.194;5.112;2023-06-01T05:44:07;25.45;;;12.50;;
49828;SDS011;35723;51.194;5.112;2023-06-01T05:46:33;24.10;;;11.77;;
49828;SDS011;35723;51.194;5.112;2023-06-01T05:48:59;24.50;;;11.90;;
49828;SDS011;35723;51.194;5.112;2023-06-01T05:51:25;23.85;;;11.27;;
49828;SDS011;35723;51.194;5.112;2023-06-01T05:53:50;24.33;;;11.85;;
49828;SDS011;35723;51.194;5.112;2023-06-01T05:56:16;25.92;;;11.18;;
49828;SDS011;35723;51.194;5.112;2023-06-01T05:58:42;25.58;;;10.90;;
49828;SDS011;35723;51.194;5.112;2023-06-01T06:01:08;22.92;;;10.90;;
49828;SDS011;35723;51.194;5.112;2023-06-01T06:03:35;23.20;;;10.82;;
49828;SDS011;35723;51.194;5.112;2023-06-01T06:06:01;22.88;;;11.25;;
49828;SDS011;35723;51.194;5.112;2023-06-01T06:08:27;22.33;;;10.57;;
49828;SDS011;35723;51.194;5.112;2023-06-01T06:10:54;25.17;;;10.82;;
49828;SDS011;35723;51.194;5.112;2023-06-01T06:13:19;23.27;;;10.55;;
49828;SDS011;35723;51.194;5.112;2023-06-01T06:15:45;24.90;;;11.27;;
49828;SDS011;35723;51.194;5.112;2023-06-01T06:18:11;29.58;;;11.45;;
49828;SDS011;35723;51.194;5.112;2023-06-01T06:20:36;23.52;;;10.77;;
49828;SDS011;35723;51.194;5.112;2023-06-01T06:23:02;22.13;;;10.48;;
49828;SDS011;35723;51.194;5.112;2023-06-01T06:25:28;23.92;;;10.45;;
49828;SDS011;35723;51.194;5.112;2023-06-01T06:27:53;24.67;;;10.88;;
49828;SDS011;35723;51.194;5.112;2023-06-01T06:30:19;21.73;;;10.75;;
49828;SDS011;35723;51.194;5.112;2023-06-01T06:32:46;24.35;;;11.02;;
49828;SDS011;35723;51.194;5.112;2023-06-01T06:35:12;25.02;;;10.80;;
49828;SDS011;35723;51.194;5.112;2023-06-01T06:37:39;26.15;;;11.38;;
49828;SDS011;35723;51.194;5.112;2023-06-01T06:40:05;23.15;;;10.80;;
49828;SDS011;35723;51.194;5.112;2023-06-01T06:42:31;23.75;;;11.00;;
49828;SDS011;35723;51.194;5.112;2023-06-01T06:44:57;23.05;;;11.20;;
49828;SDS011;35723;51.194;5.112;2023-06-01T06:47:23;23.25;;;10.98;;
49828;SDS011;35723;51.194;5.112;2023-06-01T06:49:49;24.63;;;11.50;;
49828;SDS011;35723;51.194;5.112;2023-06-01T06:52:16;23.20;;;10.20;;
49828;SDS011;35723;51.194;5.112;2023-06-01T06:54:42;21.15;;;9.88;;
49828;SDS011;35723;51.194;5.112;2023-06-01T06:57:08;23.48;;;10.52;;
49828;SDS011;35723;51.194;5.112;2023-06-01T06:59:34;20.65;;;9.35;;
49828;SDS011;35723;51.194;5.112;2023-06-01T07:02:00;25.45;;;10.60;;
49828;SDS011;35723;51.194;5.112;2023-06-01T07:04:29;24.85;;;9.77;;
49828;SDS011;35723;51.194;5.112;2023-06-01T07:06:55;23.13;;;10.65;;
49828;SDS011;35723;51.194;5.112;2023-06-01T07:09:21;19.98;;;9.88;;
49828;SDS011;35723;51.194;5.112;2023-06-01T07:11:46;22.80;;;10.23;;
49828;SDS011;35723;51.194;5.112;2023-06-01T07:14:15;22.17;;;10.27;;
49828;SDS011;35723;51.194;5.112;2023-06-01T07:16:41;23.02;;;9.93;;
49828;SDS011;35723;51.194;5.112;2023-06-01T07:19:07;26.92;;;9.98;;
49828;SDS011;35723;51.194;5.112;2023-06-01T07:21:33;24.77;;;10.73;;
49828;SDS011;35723;51.194;5.112;2023-06-01T07:23:59;24.25;;;10.15;;
49828;SDS011;35723;51.194;5.112;2023-06-01T07:26:25;23.42;;;9.60;;
49828;SDS011;35723;51.194;5.112;2023-06-01T07:28:52;22.88;;;9.95;;
49828;SDS011;35723;51.194;5.112;2023-06-01T07:31:20;22.73;;;10.63;;
49828;SDS011;35723;51.194;5.112;2023-06-01T07:33:46;21.40;;;9.63;;
49828;SDS011;35723;51.194;5.112;2023-06-01T07:36:12;21.33;;;10.45;;
49828;SDS011;35723;51.194;5.112;2023-06-01T07:38:37;19.17;;;9.88;;
49828;SDS011;35723;51.194;5.112;2023-06-01T07:41:03;21.30;;;9.07;;
49828;SDS011;35723;51.194;5.112;2023-06-01T07:43:29;22.40;;;10.80;;
49828;SDS011;35723;51.194;5.112;2023-06-01T07:45:54;19.38;;;9.07;;
49828;SDS011;35723;51.194;5.112;2023-06-01T07:48:20;20.88;;;8.82;;
49828;SDS011;35723;51.194;5.112;2023-06-01T07:50:46;20.10;;;9.18;;
49828;SDS011;35723;51.194;5.112;2023-06-01T07:53:11;20.17;;;9.02;;
49828;SDS011;35723;51.194;5.112;2023-06-01T07:55:38;18.65;;;9.27;;
49828;SDS011;35723;51.194;5.112;2023-06-01T07:58:04;20.23;;;9.48;;
49828;SDS011;35723;51.194;5.112;2023-06-01T08:00:30;23.58;;;10.93;;
49828;SDS011;35723;51.194;5.112;2023-06-01T08:02:56;22.98;;;9.90;;
49828;SDS011;35723;51.194;5.112;2023-06-01T08:05:24;22.80;;;9.75;;
49828;SDS011;35723;51.194;5.112;2023-06-01T08:07:49;21.75;;;9.57;;
49828;SDS011;35723;51.194;5.112;2023-06-01T08:10:15;22.88;;;10.20;;
49828;SDS011;35723;51.194;5.112;2023-06-01T08:12:41;22.63;;;10.55;;
49828;SDS011;35723;51.194;5.112;2023-06-01T08:15:10;23.98;;;10.93;;
49828;SDS011;35723;51.194;5.112;2023-06-01T08:17:36;21.00;;;9.65;;
49828;SDS011;35723;51.194;5.112;2023-06-01T08:20:03;22.55;;;10.07;;
49828;SDS011;35723;51.194;5.112;2023-06-01T08:22:39;24.15;;;10.38;;
49828;SDS011;35723;51.194;5.112;2023-06-01T08:25:05;24.50;;;10.50;;
49828;SDS011;35723;51.194;5.112;2023-06-01T08:27:31;23.92;;;10.90;;
49828;SDS011;35723;51.194;5.112;2023-06-01T08:29:58;22.70;;;10.70;;
49828;SDS011;35723;51.194;5.112;2023-06-01T08:32:23;21.52;;;10.82;;
49828;SDS011;35723;51.194;5.112;2023-06-01T08:34:49;22.88;;;10.50;;
49828;SDS011;35723;51.194;5.112;2023-06-01T08:37:15;23.83;;;10.57;;
49828;SDS011;35723;51.194;5.112;2023-06-01T08:39:41;20.00;;;10.00;;
49828;SDS011;35723;51.194;5.112;2023-06-01T08:42:20;22.63;;;9.60;;
49828;SDS011;35723;51.194;5.112;2023-06-01T08:45:05;23.52;;;10.25;;
49828;SDS011;35723;51.194;5.112;2023-06-01T08:47:32;22.13;;;10.73;;
49828;SDS011;35723;51.194;5.112;2023-06-01T08:49:58;21.27;;;9.73;;
49828;SDS011;35723;51.194;5.112;2023-06-01T08:52:24;20.45;;;9.68;;
49828;SDS011;35723;51.194;5.112;2023-06-01T08:54:54;24.42;;;11.23;;
49828;SDS011;35723;51.194;5.112;2023-06-01T08:57:20;24.23;;;11.27;;
49828;SDS011;35723;51.194;5.112;2023-06-01T08:59:46;22.45;;;10.38;;
49828;SDS011;35723;51.194;5.112;2023-06-01T09:02:12;24.58;;;11.05;;
49828;SDS011;35723;51.194;5.112;2023-06-01T09:04:40;21.88;;;10.35;;
49828;SDS011;35723;51.194;5.112;2023-06-01T09:07:09;22.45;;;9.82;;
49828;SDS011;35723;51.194;5.112;2023-06-01T09:09:38;19.88;;;9.93;;
49828;SDS011;35723;51.194;5.112;2023-06-01T09:15:04;24.02;;;10.75;;
49828;SDS011;35723;51.194;5.112;2023-06-01T09:17:31;24.20;;;10.38;;
49828;SDS011;35723;51.194;5.112;2023-06-01T09:19:58;21.27;;;10.07;;
49828;SDS011;35723;51.194;5.112;2023-06-01T09:22:23;20.77;;;9.93;;
49828;SDS011;35723;51.194;5.112;2023-06-01T09:24:56;20.38;;;10.10;;
49828;SDS011;35723;51.194;5.112;2023-06-01T09:27:23;26.05;;;11.02;;
49828;SDS011;35723;51.194;5.112;2023-06-01T09:29:58;23.58;;;10.77;;
49828;SDS011;35723;51.194;5.112;2023-06-01T09:32:27;23.58;;;10.63;;
49828;SDS011;35723;51.194;5.112;2023-06-01T09:34:52;21.08;;;10.15;;
49828;SDS011;35723;51.194;5.112;2023-06-01T09:37:20;26.45;;;10.63;;
49828;SDS011;35723;51.194;5.112;2023-06-01T09:39:46;24.05;;;9.73;;
49828;SDS011;35723;51.194;5.112;2023-06-01T09:42:11;22.10;;;10.02;;
49828;SDS011;35723;51.194;5.112;2023-06-01T09:44:40;22.23;;;10.60;;
49828;SDS011;35723;51.194;5.112;2023-06-01T09:47:08;22.67;;;9.88;;
49828;SDS011;35723;51.194;5.112;2023-06-01T09:49:36;23.52;;;10.95;;
49828;SDS011;35723;51.194;5.112;2023-06-01T09:57:04;22.17;;;9.98;;
49828;SDS011;35723;51.194;5.112;2023-06-01T10:02:09;23.35;;;9.25;;
49828;SDS011;35723;51.194;5.112;2023-06-01T10:04:39;22.15;;;9.88;;
49828;SDS011;35723;51.194;5.112;2023-06-01T10:07:06;21.63;;;9.35;;
49828;SDS011;35723;51.194;5.112;2023-06-01T10:09:33;24.90;;;11.20;;
49828;SDS011;35723;51.194;5.112;2023-06-01T10:12:03;20.50;;;9.80;;
49828;SDS011;35723;51.194;5.112;2023-06-01T10:14:30;24.67;;;10.70;;
49828;SDS011;35723;51.194;5.112;2023-06-01T10:16:56;21.52;;;9.70;;
49828;SDS011;35723;51.194;5.112;2023-06-01T10:19:23;24.95;;;11.05;;
49828;SDS011;35723;51.194;5.112;2023-06-01T10:21:49;24.10;;;10.68;;
49828;SDS011;35723;51.194;5.112;2023-06-01T10:24:18;21.42;;;9.70;;
49828;SDS011;35723;51.194;5.112;2023-06-01T10:29:31;21.40;;;9.98;;
49828;SDS011;35723;51.194;5.112;2023-06-01T10:31:58;25.40;;;9.98;;
49828;SDS011;35723;51.194;5.112;2023-06-01T10:34:36;20.52;;;9.85;;
49828;SDS011;35723;51.194;5.112;2023-06-01T10:39:33;23.83;;;10.48;;
49828;SDS011;35723;51.194;5.112;2023-06-01T10:47:03;21.10;;;9.50;;
49828;SDS011;35723;51.194;5.112;2023-06-01T10:50:14;22.20;;;9.68;;
49828;SDS011;35723;51.194;5.112;2023-06-01T10:52:31;22.42;;;10.07;;
49828;SDS011;35723;51.194;5.112;2023-06-01T10:57:31;22.85;;;10.40;;
49828;SDS011;35723;51.194;5.112;2023-06-01T11:02:50;22.43;;;10.77;;
49828;SDS011;35723;51.194;5.112;2023-06-01T11:08:04;24.35;;;10.35;;
49828;SDS011;35723;51.194;5.112;2023-06-01T11:13:23;25.15;;;11.18;;
49828;SDS011;35723;51.194;5.112;2023-06-01T11:21:08;23.73;;;11.35;;
49828;SDS011;35723;51.194;5.112;2023-06-01T11:23:35;29.63;;;12.52;;
49828;SDS011;35723;51.194;5.112;2023-06-01T11:26:03;26.65;;;13.55;;
49828;SDS011;35723;51.194;5.112;2023-06-01T11:28:32;25.50;;;12.93;;
49828;SDS011;35723;51.194;5.112;2023-06-01T11:31:02;27.60;;;11.88;;
49828;SDS011;35723;51.194;5.112;2023-06-01T11:33:28;21.00;;;10.55;;
49828;SDS011;35723;51.194;5.112;2023-06-01T11:36:01;23.35;;;10.38;;
49828;SDS011;35723;51.194;5.112;2023-06-01T11:40:59;22.75;;;10.93;;
49828;SDS011;35723;51.194;5.112;2023-06-01T11:43:27;25.55;;;11.95;;
49828;SDS011;35723;51.194;5.112;2023-06-01T11:48:31;22.83;;;9.45;;
49828;SDS011;35723;51.194;5.112;2023-06-01T11:50:59;24.95;;;10.90;;
49828;SDS011;35723;51.194;5.112;2023-06-01T11:53:25;23.80;;;10.23;;
49828;SDS011;35723;51.194;5.112;2023-06-01T11:55:53;22.85;;;9.63;;
49828;SDS011;35723;51.194;5.112;2023-06-01T11:58:29;21.73;;;9.23;;
49828;SDS011;35723;51.194;5.112;2023-06-01T12:00:55;21.15;;;9.00;;
49828;SDS011;35723;51.194;5.112;2023-06-01T12:03:23;22.33;;;8.85;;
49828;SDS011;35723;51.194;5.112;2023-06-01T12:05:49;23.65;;;9.43;;
49828;SDS011;35723;51.194;5.112;2023-06-01T12:08:16;22.73;;;9.70;;
49828;SDS011;35723;51.194;5.112;2023-06-01T12:10:47;24.27;;;8.75;;
49828;SDS011;35723;51.194;5.112;2023-06-01T12:13:15;21.05;;;9.10;;
49828;SDS011;35723;51.194;5.112;2023-06-01T12:15:42;23.30;;;8.77;;
49828;SDS011;35723;51.194;5.112;2023-06-01T12:18:08;21.17;;;9.18;;
49828;SDS011;35723;51.194;5.112;2023-06-01T12:20:43;19.08;;;7.57;;
49828;SDS011;35723;51.194;5.112;2023-06-01T12:25:51;20.48;;;8.85;;
49828;SDS011;35723;51.194;5.112;2023-06-01T12:28:18;23.17;;;8.90;;
49828;SDS011;35723;51.194;5.112;2023-06-01T12:30:49;21.10;;;8.50;;
49828;SDS011;35723;51.194;5.112;2023-06-01T12:33:37;20.15;;;8.07;;
49828;SDS011;35723;51.194;5.112;2023-06-01T12:36:05;22.50;;;8.77;;
49828;SDS011;35723;51.194;5.112;2023-06-01T12:38:35;20.45;;;8.15;;
49828;SDS011;35723;51.194;5.112;2023-06-01T12:41:17;20.08;;;8.13;;
49828;SDS011;35723;51.194;5.112;2023-06-01T12:43:46;20.13;;;7.30;;
49828;SDS011;35723;51.194;5.112;2023-06-01T12:51:41;19.52;;;8.23;;
49828;SDS011;35723;51.194;5.112;2023-06-01T12:54:07;20.77;;;7.80;;
49828;SDS011;35723;51.194;5.112;2023-06-01T12:56:32;17.67;;;8.05;;
49828;SDS011;35723;51.194;5.112;2023-06-01T12:58:58;21.08;;;8.35;;
49828;SDS011;35723;51.194;5.112;2023-06-01T13:01:24;20.80;;;8.10;;
49828;SDS011;35723;51.194;5.112;2023-06-01T13:03:49;19.35;;;7.30;;
49828;SDS011;35723;51.194;5.112;2023-06-01T13:06:17;19.42;;;8.20;;
49828;SDS011;35723;51.194;5.112;2023-06-01T13:08:43;17.30;;;7.25;;
49828;SDS011;35723;51.194;5.112;2023-06-01T13:11:09;19.98;;;7.78;;
49828;SDS011;35723;51.194;5.112;2023-06-01T13:13:35;20.02;;;7.30;;
49828;SDS011;35723;51.194;5.112;2023-06-01T13:16:01;22.90;;;8.55;;
49828;SDS011;35723;51.194;5.112;2023-06-01T13:18:27;18.15;;;7.50;;
49828;SDS011;35723;51.194;5.112;2023-06-01T13:20:53;22.95;;;7.93;;
49828;SDS011;35723;51.194;5.112;2023-06-01T13:23:19;23.33;;;8.25;;
49828;SDS011;35723;51.194;5.112;2023-06-01T13:25:45;19.60;;;8.00;;
49828;SDS011;35723;51.194;5.112;2023-06-01T13:28:10;17.88;;;7.35;;
49828;SDS011;35723;51.194;5.112;2023-06-01T13:30:37;19.35;;;7.53;;
49828;SDS011;35723;51.194;5.112;2023-06-01T13:33:04;20.95;;;7.47;;
49828;SDS011;35723;51.194;5.112;2023-06-01T13:35:30;19.98;;;7.45;;
49828;SDS011;35723;51.194;5.112;2023-06-01T13:37:56;22.77;;;7.32;;
49828;SDS011;35723;51.194;5.112;2023-06-01T13:40:21;18.63;;;6.88;;
49828;SDS011;35723;51.194;5.112;2023-06-01T13:42:51;16.90;;;6.95;;
49828;SDS011;35723;51.194;5.112;2023-06-01T13:45:17;18.85;;;6.50;;
49828;SDS011;35723;51.194;5.112;2023-06-01T13:47:44;17.80;;;6.35;;
49828;SDS011;35723;51.194;5.112;2023-06-01T13:50:10;21.23;;;6.82;;
49828;SDS011;35723;51.194;5.112;2023-06-01T13:52:37;15.80;;;5.90;;
49828;SDS011;35723;51.194;5.112;2023-06-01T13:55:04;17.42;;;6.32;;
49828;SDS011;35723;51.194;5.112;2023-06-01T13:57:31;16.52;;;5.80;;
49828;SDS011;35723;51.194;5.112;2023-06-01T13:59:57;17.45;;;6.15;;
49828;SDS011;35723;51.194;5.112;2023-06-01T14:02:30;15.35;;;6.20;;
49828;SDS011;35723;51.194;5.112;2023-06-01T14:04:55;14.70;;;5.93;;
49828;SDS011;35723;51.194;5.112;2023-06-01T14:07:21;17.33;;;6.03;;
49828;SDS011;35723;51.194;5.112;2023-06-01T14:09:47;15.73;;;5.70;;
49828;SDS011;35723;51.194;5.112;2023-06-01T14:12:12;16.15;;;6.13;;
49828;SDS011;35723;51.194;5.112;2023-06-01T14:14:38;14.82;;;5.38;;
49828;SDS011;35723;51.194;5.112;2023-06-01T14:17:05;16.48;;;5.85;;
49828;SDS011;35723;51.194;5.112;2023-06-01T14:19:31;20.17;;;5.82;;
49828;SDS011;35723;51.194;5.112;2023-06-01T14:21:57;17.35;;;5.88;;
49828;SDS011;35723;51.194;5.112;2023-06-01T14:24:23;17.92;;;5.45;;
49828;SDS011;35723;51.194;5.112;2023-06-01T14:26:48;14.70;;;5.00;;
49828;SDS011;35723;51.194;5.112;2023-06-01T14:29:14;15.45;;;5.18;;
49828;SDS011;35723;51.194;5.112;2023-06-01T14:31:40;16.63;;;5.60;;
49828;SDS011;35723;51.194;5.112;2023-06-01T14:34:06;16.98;;;5.10;;
49828;SDS011;35723;51.194;5.112;2023-06-01T14:36:32;14.77;;;5.45;;
49828;SDS011;35723;51.194;5.112;2023-06-01T14:38:58;17.88;;;5.50;;
49828;SDS011;35723;51.194;5.112;2023-06-01T14:41:23;13.68;;;4.90;;
49828;SDS011;35723;51.194;5.112;2023-06-01T14:43:50;11.23;;;5.10;;
49828;SDS011;35723;51.194;5.112;2023-06-01T14:46:15;17.63;;;5.57;;
49828;SDS011;35723;51.194;5.112;2023-06-01T14:48:41;17.52;;;5.50;;
49828;SDS011;35723;51.194;5.112;2023-06-01T14:51:07;16.52;;;5.60;;
49828;SDS011;35723;51.194;5.112;2023-06-01T14:53:36;14.35;;;5.20;;
49828;SDS011;35723;51.194;5.112;2023-06-01T14:56:04;10.55;;;4.80;;
49828;SDS011;35723;51.194;5.112;2023-06-01T14:58:30;13.43;;;5.30;;
49828;SDS011;35723;51.194;5.112;2023-06-01T15:00:56;14.88;;;4.75;;
49828;SDS011;35723;51.194;5.112;2023-06-01T15:03:22;18.35;;;5.03;;
49828;SDS011;35723;51.194;5.112;2023-06-01T15:05:47;14.73;;;5.28;;
49828;SDS011;35723;51.194;5.112;2023-06-01T15:08:14;12.48;;;5.20;;
49828;SDS011;35723;51.194;5.112;2023-06-01T15:10:40;14.52;;;5.38;;
49828;SDS011;35723;51.194;5.112;2023-06-01T15:13:05;13.48;;;4.82;;
49828;SDS011;35723;51.194;5.112;2023-06-01T15:15:31;16.08;;;5.03;;
49828;SDS011;35723;51.194;5.112;2023-06-01T15:17:57;17.70;;;5.13;;
49828;SDS011;35723;51.194;5.112;2023-06-01T15:20:22;15.45;;;5.05;;
49828;SDS011;35723;51.194;5.112;2023-06-01T15:22:48;15.68;;;5.13;;
49828;SDS011;35723;51.194;5.112;2023-06-01T15:25:14;19.38;;;5.15;;
49828;SDS011;35723;51.194;5.112;2023-06-01T15:27:40;17.92;;;5.40;;